Annapolis, Washington
Current Conditions -  °F | °C
As of 6:15 AM on Monday 20 Oct 2014 (Local Time) from KPWT Reporting Station
Overcast Overcast  
Wind Chill: 55°   Ceiling: 1000
Heat Index: 55°   Visibility: 5mi
Dew Point: 54°   Wind: 10mph
Humidity: 94%   Direction: 210°SSW
Pressure: 29.73"   Gusts: NA
Location:  47.5378°N, 122.589°W
Report Text: KPWT 201315Z AUTO 21009KT 5SM SCT005 BKN010 OVC014 13/12 A2973 RMK AO1 P0005
Loading
Personal Weather Stations






























Interactive Weather Map
Tropical Storm Tracking
New forecast layout! Learn more

10-Day Weather Forecast

Advertisements
Track Severe Weather on mobile